Delta Lindsey — WDF5519 — position and weather

sailwx.info

Track history (hours):
 
Tides and Currents Weather Stations Pressure Air Temp Water Temp Dewpoint Dewpoint Depression Visibility Wind Speed Wind Dir Waves Ship Positions

Delta Lindsey

Owner: Baydelta Navigation, Inc., San Francisco, CA. More information available from US FCC via Universal Licensing System and Coast Guard Vessel Documentation Center.

Last reported at 2015-Aug-29 12:30 UTC. Time now 2015-Aug-29 12:38 UTC.
Position N 45°38' W 122°43'.

MMSI: 233246442.

Date/timePositionNaut miles runAvg speedWind from/ knotsBaromVisibWave heightAir tempDewpointWater temp
2015-Aug-29 12:30N 45°38' W 122°43'0 0.0
2015-Aug-29 11:30N 45°38' W 122°43'0 0.0
2015-Aug-29 10:33N 45°38' W 122°43'0 0.0
2015-Aug-29 09:33N 45°38' W 122°43'0 0.0
2015-Aug-29 08:27N 45°38' W 122°43'0 0.0
2015-Aug-29 07:33N 45°38' W 122°43'0 0.0
2015-Aug-29 06:33N 45°38' W 122°43'0 0.0
2015-Aug-29 05:30N 45°38' W 122°43'0 0.0
2015-Aug-29 04:33N 45°38' W 122°43'0 0.0
2015-Aug-29 03:30N 45°38' W 122°43'0 0.0
2015-Aug-29 02:30N 45°38' W 122°43'0 0.0
2015-Aug-29 01:30N 45°38' W 122°43'0 0.0
2015-Aug-29 00:27N 45°38' W 122°43'0 0.0
2015-Aug-28 23:33N 45°38' W 122°43'0 0.0
2015-Aug-28 22:33N 45°38' W 122°43'0 0.0
2015-Aug-28 21:33N 45°38' W 122°43'0 0.0
2015-Aug-28 20:27N 45°38' W 122°43'0 0.0
2015-Aug-28 19:33N 45°38' W 122°43'0 0.0
2015-Aug-28 18:33N 45°38' W 122°43'0 0.0
2015-Aug-28 17:27N 45°38' W 122°43'0 0.0
2015-Aug-28 16:33N 45°38' W 122°43'0 0.0
2015-Aug-28 15:30N 45°38' W 122°43'0 0.0
2015-Aug-28 14:30N 45°38' W 122°43'0 0.0
2015-Aug-28 13:33N 45°38' W 122°43'0 0.0
2015-Aug-28 12:33N 45°38' W 122°43'0 0.0
2015-Aug-28 11:24N 45°38' W 122°43'0 0.0
2015-Aug-28 10:30N 45°38' W 122°43'0 0.0
2015-Aug-28 09:33N 45°38' W 122°43'0 0.0
2015-Aug-28 08:33N 45°38' W 122°43'0 0.0
2015-Aug-28 07:33N 45°38' W 122°43'0 0.0
2015-Aug-28 06:09N 45°38' W 122°43'0 0.0
2015-Aug-28 05:33N 45°38' W 122°43'0 0.0
2015-Aug-28 04:30N 45°38' W 122°43'0 0.0
2015-Aug-28 03:33N 45°38' W 122°43'0 0.0
2015-Aug-28 02:15N 45°38' W 122°43'0 0.0
2015-Aug-28 01:33N 45°38' W 122°43'0 0.0
2015-Aug-28 00:30N 45°38' W 122°43'0 0.0
2015-Aug-27 23:27N 45°38' W 122°43'4 3.9
2015-Aug-27 22:33N 45°37' W 122°39'0 0.0
2015-Aug-27 21:33N 45°37' W 122°39'1 0.9
2015-Aug-27 20:33N 45°37' W 122°40'3 1.3
2015-Aug-27 18:29N 45°38' W 122°43'0 0.0
2015-Aug-27 17:26N 45°38' W 122°43'0 0.0
2015-Aug-27 16:32N 45°38' W 122°43'0 0.0
2015-Aug-27 15:32N 45°38' W 122°43'0 0.0
2015-Aug-27 14:26N 45°38' W 122°43'0 0.0
2015-Aug-27 13:32N 45°38' W 122°43'0 0.0
2015-Aug-27 12:26N 45°38' W 122°43'0 0.0
2015-Aug-27 11:32N 45°38' W 122°43'0 0.0
2015-Aug-27 10:32N 45°38' W 122°43'0 0.0
2015-Aug-27 09:20N 45°38' W 122°43'0 0.0
2015-Aug-27 08:26N 45°38' W 122°43'0 0.0
2015-Aug-27 07:29N 45°38' W 122°43'0 0.0
2015-Aug-27 06:32N 45°38' W 122°43'0 0.0
2015-Aug-27 05:32N 45°38' W 122°43'0 0.0
2015-Aug-27 03:32N 45°38' W 122°43'0 0.0
2015-Aug-27 02:29N 45°38' W 122°43'0 0.0
2015-Aug-27 01:29N 45°38' W 122°43'0 0.0
2015-Aug-27 00:29N 45°38' W 122°43'0 0.0
2015-Aug-26 23:32N 45°38' W 122°43'0 0.0
2015-Aug-26 22:17N 45°38' W 122°43'0 0.0
2015-Aug-26 21:32N 45°38' W 122°43'0 0.0
2015-Aug-26 20:17N 45°38' W 122°43'0 0.0
2015-Aug-26 19:29N 45°38' W 122°43'0 0.0
2015-Aug-26 18:17N 45°38' W 122°43'0 0.0
2015-Aug-26 17:17N 45°38' W 122°43'0 0.0
2015-Aug-26 16:23N 45°38' W 122°43'0 0.0
2015-Aug-26 15:32N 45°38' W 122°43'0 0.0
2015-Aug-26 14:23N 45°38' W 122°43'0 0.0
2015-Aug-26 13:26N 45°38' W 122°43'0 0.0
2015-Aug-26 12:32N 45°38' W 122°43'0 0.0
2015-Aug-26 11:29N 45°38' W 122°43'0 0.0
2015-Aug-26 10:29N 45°38' W 122°43'0 0.0
2015-Aug-26 09:29N 45°38' W 122°43'0 0.0
2015-Aug-26 08:29N 45°38' W 122°43'0 0.0
2015-Aug-26 07:32N 45°38' W 122°43'0 0.0
2015-Aug-26 06:32N 45°38' W 122°43'0 0.0
2015-Aug-26 05:32N 45°38' W 122°43'0 0.0
2015-Aug-26 04:32N 45°38' W 122°43'0 0.0
2015-Aug-26 03:23N 45°38' W 122°43'0 0.0
2015-Aug-26 02:17N 45°38' W 122°43'0 0.0
2015-Aug-26 01:26N 45°38' W 122°43'0 0.0
2015-Aug-26 00:32N 45°38' W 122°43'0 0.0
2015-Aug-25 23:32N 45°38' W 122°43'0 0.0
2015-Aug-25 22:32N 45°38' W 122°43'0 0.0
2015-Aug-25 20:32N 45°38' W 122°43'0 0.0
2015-Aug-25 19:20N 45°38' W 122°43'0 0.0
2015-Aug-25 18:32N 45°38' W 122°43'0 0.0
2015-Aug-25 17:32N 45°38' W 122°43'0 0.0
2015-Aug-25 16:32N 45°38' W 122°43'0 0.0
2015-Aug-25 15:32N 45°38' W 122°43'0 0.0
2015-Aug-25 14:26N 45°38' W 122°43'0 0.0
2015-Aug-25 13:20N 45°38' W 122°43'0 0.0
2015-Aug-25 12:32N 45°38' W 122°43'0 0.0
2015-Aug-25 11:32N 45°38' W 122°43'0 0.0
2015-Aug-25 10:26N 45°38' W 122°43'0 0.0
2015-Aug-25 09:29N 45°38' W 122°43'0 0.0
2015-Aug-25 08:08N 45°38' W 122°43'0 0.0
2015-Aug-25 07:32N 45°38' W 122°43'0 0.0
2015-Aug-25 06:32N 45°38' W 122°43'0 0.0
2015-Aug-25 05:32N 45°38' W 122°43'0 0.0
2015-Aug-25 04:23N 45°38' W 122°43'0 0.0
2015-Aug-25 03:29N 45°38' W 122°43'0 0.0
2015-Aug-25 02:14N 45°38' W 122°43'0 0.0
2015-Aug-25 01:32N 45°38' W 122°43'0 0.0
2015-Aug-25 00:26N 45°38' W 122°43'0 0.0
2015-Aug-24 23:32N 45°38' W 122°43'0 0.0
2015-Aug-24 22:29N 45°38' W 122°43'0 0.0
2015-Aug-24 21:32N 45°38' W 122°43'0 0.0
2015-Aug-24 20:32N 45°38' W 122°43'0 0.0
2015-Aug-24 19:11N 45°38' W 122°43'0 0.0
2015-Aug-24 18:20N 45°38' W 122°43'0 0.0
2015-Aug-24 17:20N 45°38' W 122°43'0 0.0
2015-Aug-24 16:20N 45°38' W 122°43'0 0.0
2015-Aug-24 15:32N 45°38' W 122°43'0 0.0
2015-Aug-24 14:26N 45°38' W 122°43'0 0.0
2015-Aug-24 13:26N 45°38' W 122°43'0 0.0
2015-Aug-24 12:32N 45°38' W 122°43'0 0.0
2015-Aug-24 11:29N 45°38' W 122°43'0 0.0
2015-Aug-24 10:23N 45°38' W 122°43'0 0.0
2015-Aug-24 09:26N 45°38' W 122°43'0 0.0
2015-Aug-24 08:26N 45°38' W 122°43'0 0.0
2015-Aug-24 07:26N 45°38' W 122°43'0 0.0
2015-Aug-24 06:32N 45°38' W 122°43'0 0.0
2015-Aug-24 05:26N 45°38' W 122°43'0 0.0
2015-Aug-24 04:17N 45°38' W 122°43'0 0.0
2015-Aug-24 03:29N 45°38' W 122°43'0 0.0
2015-Aug-24 02:32N 45°38' W 122°43'0 0.0
2015-Aug-24 01:32N 45°38' W 122°43'0 0.0
2015-Aug-24 00:26N 45°38' W 122°43'0 0.0
2015-Aug-23 23:29N 45°38' W 122°43'0 0.0
2015-Aug-23 21:26N 45°38' W 122°43'0 0.0
2015-Aug-23 20:32N 45°38' W 122°43'0 0.0
2015-Aug-23 19:23N 45°38' W 122°43'0 0.0
2015-Aug-23 18:20N 45°38' W 122°43'0 0.0
2015-Aug-23 17:32N 45°38' W 122°43'0 0.0
2015-Aug-23 16:20N 45°38' W 122°43'0 0.0
2015-Aug-23 15:32N 45°38' W 122°43'0 0.0
2015-Aug-23 14:32N 45°38' W 122°43'0 0.0
2015-Aug-23 13:20N 45°38' W 122°43'0 0.0
2015-Aug-23 12:32N 45°38' W 122°43'0 0.0
2015-Aug-23 11:32N 45°38' W 122°43'0 0.0
2015-Aug-23 10:32N 45°38' W 122°43'0 0.0
2015-Aug-23 09:26N 45°38' W 122°43'0 0.0
2015-Aug-23 08:32N 45°38' W 122°43'0 0.0
2015-Aug-23 07:26N 45°38' W 122°43'0 0.0
2015-Aug-23 06:26N 45°38' W 122°43'0 0.0
2015-Aug-23 05:32N 45°38' W 122°43'0 0.0
2015-Aug-23 04:23N 45°38' W 122°43'0 0.0
2015-Aug-23 03:32N 45°38' W 122°43'0 0.0
2015-Aug-23 02:26N 45°38' W 122°43'0 0.0
2015-Aug-23 01:32N 45°38' W 122°43'0 0.0
2015-Aug-23 00:29N 45°38' W 122°43'0 0.0
2015-Aug-22 23:29N 45°38' W 122°43'0 0.0
2015-Aug-22 22:26N 45°38' W 122°43'0 0.0
2015-Aug-22 21:32N 45°38' W 122°43'0 0.0
2015-Aug-22 20:32N 45°38' W 122°43'0 0.0
2015-Aug-22 19:32N 45°38' W 122°43'0 0.0
2015-Aug-22 18:29N 45°38' W 122°43'0 0.0
2015-Aug-22 17:32N 45°38' W 122°43'0 0.0
2015-Aug-22 16:26N 45°38' W 122°43'0 0.0
2015-Aug-22 15:32N 45°38' W 122°43'0 0.0
2015-Aug-22 14:32N 45°38' W 122°43'0 0.0
2015-Aug-22 13:32N 45°38' W 122°43'0 0.0
2015-Aug-22 12:32N 45°38' W 122°43'0 0.0
2015-Aug-22 11:32N 45°38' W 122°43'0 0.0
2015-Aug-22 10:32N 45°38' W 122°43'0 0.0
2015-Aug-22 09:32N 45°38' W 122°43'0 0.0
2015-Aug-22 08:32N 45°38' W 122°43'0 0.0
2015-Aug-22 07:26N 45°38' W 122°43'0 0.0
2015-Aug-22 06:32N 45°38' W 122°43'0 0.0
2015-Aug-22 05:29N 45°38' W 122°43'0 0.0
2015-Aug-22 04:23N 45°38' W 122°43'0 0.0
2015-Aug-22 03:32N 45°38' W 122°43'0 0.0
2015-Aug-22 02:20N 45°38' W 122°43'0 0.0
2015-Aug-22 01:32N 45°38' W 122°43'0 0.0
2015-Aug-22 00:26N 45°38' W 122°43'0 0.0
2015-Aug-21 23:32N 45°38' W 122°43'0 0.0
2015-Aug-21 22:32N 45°38' W 122°43'0 0.0
2015-Aug-21 21:32N 45°38' W 122°43'0 0.0
2015-Aug-21 20:32N 45°38' W 122°43'0 0.0
2015-Aug-21 19:32N 45°38' W 122°43'0 0.0
2015-Aug-21 18:32N 45°38' W 122°43'0 0.0
2015-Aug-21 17:32N 45°38' W 122°43'0 0.0
2015-Aug-21 16:32N 45°38' W 122°43'0 0.0
2015-Aug-21 15:32N 45°38' W 122°43'0 0.0
2015-Aug-21 14:32N 45°38' W 122°43'0 0.0
2015-Aug-21 13:20N 45°38' W 122°43'0 0.0
2015-Aug-21 12:32N 45°38' W 122°43'0 0.0
2015-Aug-21 11:32N 45°38' W 122°43'0 0.0
2015-Aug-21 10:32N 45°38' W 122°43'0 0.0
2015-Aug-21 09:32N 45°38' W 122°43'0 0.0
2015-Aug-21 08:32N 45°38' W 122°43'0 0.0
2015-Aug-21 07:29N 45°38' W 122°43'0 0.0
2015-Aug-21 06:32N 45°38' W 122°43'0 0.0
2015-Aug-21 05:32N 45°38' W 122°43'0 0.0
2015-Aug-21 04:32N 45°38' W 122°43'0 0.0
2015-Aug-21 03:32N 45°38' W 122°43'0 0.0
2015-Aug-21 02:32N 45°38' W 122°43'0 0.0
2015-Aug-21 01:29N 45°38' W 122°43'0 0.0
2015-Aug-21 00:32N 45°38' W 122°43'0 0.0
2015-Aug-20 23:29N 45°38' W 122°43'0 0.0
2015-Aug-20 22:32N 45°38' W 122°43'0 0.0
2015-Aug-20 21:31N 45°38' W 122°43'0 0.0
2015-Aug-20 20:31N 45°38' W 122°43'0 0.0
2015-Aug-20 19:31N 45°38' W 122°43'0 0.0
2015-Aug-20 18:31N 45°38' W 122°43'0 0.0
2015-Aug-20 17:31N 45°38' W 122°43'0 0.0
2015-Aug-20 16:25N 45°38' W 122°43'0 0.0
2015-Aug-20 15:25N 45°38' W 122°43'0 0.0
2015-Aug-20 14:25N 45°38' W 122°43'0 0.0
2015-Aug-20 13:28N 45°38' W 122°43'0 0.0
2015-Aug-20 12:22N 45°38' W 122°43'0 0.0
2015-Aug-20 11:28N 45°38' W 122°43'0 0.0
2015-Aug-20 10:31N 45°38' W 122°43'0 0.0
2015-Aug-20 09:31N 45°38' W 122°43'0 0.0
2015-Aug-20 08:22N 45°38' W 122°43'0 0.0
2015-Aug-20 07:31N 45°38' W 122°43'0 0.0
2015-Aug-20 06:31N 45°38' W 122°43'0 0.0
2015-Aug-20 05:31N 45°38' W 122°43'0 0.0
2015-Aug-20 04:31N 45°38' W 122°43'0 0.0
2015-Aug-20 03:31N 45°38' W 122°43'0 0.0
2015-Aug-20 02:31N 45°38' W 122°43'0 0.0
2015-Aug-20 01:25N 45°38' W 122°43'0 0.0
2015-Aug-20 00:31N 45°38' W 122°43'0 0.0
2015-Aug-19 23:25N 45°38' W 122°43'0 0.0
2015-Aug-19 22:31N 45°38' W 122°43'0 0.0
2015-Aug-19 21:13N 45°38' W 122°43'0 0.0
2015-Aug-19 20:31N 45°38' W 122°43'0 0.0
2015-Aug-19 19:31N 45°38' W 122°43'0 0.0
2015-Aug-19 18:25N 45°38' W 122°43'0 0.0
2015-Aug-19 17:31N 45°38' W 122°43'0 0.0
2015-Aug-19 16:19N 45°38' W 122°43'0 0.0
2015-Aug-19 15:28N 45°38' W 122°43'0 0.0
2015-Aug-19 14:31N 45°38' W 122°43'0 0.0
2015-Aug-19 13:31N 45°38' W 122°43'  
Track history (hours):
 
Tides and Currents Weather Stations Pressure Air Temp Water Temp Dewpoint Dewpoint Depression Visibility Wind Speed Wind Dir Waves Ship Positions

Delta Lindsey

Owner: Baydelta Navigation, Inc., San Francisco, CA. More information available from US FCC via Universal Licensing System and Coast Guard Vessel Documentation Center.

Last reported at 2015-Aug-29 12:30 UTC. Time now 2015-Aug-29 12:38 UTC.
Position N 45°38' W 122°43'.

MMSI: 233246442.

Date/timePositionNaut miles runAvg speedWind from/ knotsBaromVisibWave heightAir tempDewpointWater temp
2015-Aug-29 12:30N 45°38' W 122°43'0 0.0
2015-Aug-29 11:30N 45°38' W 122°43'0 0.0
2015-Aug-29 10:33N 45°38' W 122°43'0 0.0
2015-Aug-29 09:33N 45°38' W 122°43'0 0.0
2015-Aug-29 08:27N 45°38' W 122°43'0 0.0
2015-Aug-29 07:33N 45°38' W 122°43'0 0.0
2015-Aug-29 06:33N 45°38' W 122°43'0 0.0
2015-Aug-29 05:30N 45°38' W 122°43'0 0.0
2015-Aug-29 04:33N 45°38' W 122°43'0 0.0
2015-Aug-29 03:30N 45°38' W 122°43'0 0.0
2015-Aug-29 02:30N 45°38' W 122°43'0 0.0
2015-Aug-29 01:30N 45°38' W 122°43'0 0.0
2015-Aug-29 00:27N 45°38' W 122°43'0 0.0
2015-Aug-28 23:33N 45°38' W 122°43'0 0.0
2015-Aug-28 22:33N 45°38' W 122°43'0 0.0
2015-Aug-28 21:33N 45°38' W 122°43'0 0.0
2015-Aug-28 20:27N 45°38' W 122°43'0 0.0
2015-Aug-28 19:33N 45°38' W 122°43'0 0.0
2015-Aug-28 18:33N 45°38' W 122°43'0 0.0
2015-Aug-28 17:27N 45°38' W 122°43'0 0.0
2015-Aug-28 16:33N 45°38' W 122°43'0 0.0
2015-Aug-28 15:30N 45°38' W 122°43'0 0.0
2015-Aug-28 14:30N 45°38' W 122°43'0 0.0
2015-Aug-28 13:33N 45°38' W 122°43'0 0.0
2015-Aug-28 12:33N 45°38' W 122°43'0 0.0
2015-Aug-28 11:24N 45°38' W 122°43'0 0.0
2015-Aug-28 10:30N 45°38' W 122°43'0 0.0
2015-Aug-28 09:33N 45°38' W 122°43'0 0.0
2015-Aug-28 08:33N 45°38' W 122°43'0 0.0
2015-Aug-28 07:33N 45°38' W 122°43'0 0.0
2015-Aug-28 06:09N 45°38' W 122°43'0 0.0
2015-Aug-28 05:33N 45°38' W 122°43'0 0.0
2015-Aug-28 04:30N 45°38' W 122°43'0 0.0
2015-Aug-28 03:33N 45°38' W 122°43'0 0.0
2015-Aug-28 02:15N 45°38' W 122°43'0 0.0
2015-Aug-28 01:33N 45°38' W 122°43'0 0.0
2015-Aug-28 00:30N 45°38' W 122°43'0 0.0
2015-Aug-27 23:27N 45°38' W 122°43'4 3.9
2015-Aug-27 22:33N 45°37' W 122°39'0 0.0
2015-Aug-27 21:33N 45°37' W 122°39'1 0.9
2015-Aug-27 20:33N 45°37' W 122°40'3 1.3
2015-Aug-27 18:29N 45°38' W 122°43'0 0.0
2015-Aug-27 17:26N 45°38' W 122°43'0 0.0
2015-Aug-27 16:32N 45°38' W 122°43'0 0.0
2015-Aug-27 15:32N 45°38' W 122°43'0 0.0
2015-Aug-27 14:26N 45°38' W 122°43'0 0.0
2015-Aug-27 13:32N 45°38' W 122°43'0 0.0
2015-Aug-27 12:26N 45°38' W 122°43'0 0.0
2015-Aug-27 11:32N 45°38' W 122°43'0 0.0
2015-Aug-27 10:32N 45°38' W 122°43'0 0.0
2015-Aug-27 09:20N 45°38' W 122°43'0 0.0
2015-Aug-27 08:26N 45°38' W 122°43'0 0.0
2015-Aug-27 07:29N 45°38' W 122°43'0 0.0
2015-Aug-27 06:32N 45°38' W 122°43'0 0.0
2015-Aug-27 05:32N 45°38' W 122°43'0 0.0
2015-Aug-27 03:32N 45°38' W 122°43'0 0.0
2015-Aug-27 02:29N 45°38' W 122°43'0 0.0
2015-Aug-27 01:29N 45°38' W 122°43'0 0.0
2015-Aug-27 00:29N 45°38' W 122°43'0 0.0
2015-Aug-26 23:32N 45°38' W 122°43'0 0.0
2015-Aug-26 22:17N 45°38' W 122°43'0 0.0
2015-Aug-26 21:32N 45°38' W 122°43'0 0.0
2015-Aug-26 20:17N 45°38' W 122°43'0 0.0
2015-Aug-26 19:29N 45°38' W 122°43'0 0.0
2015-Aug-26 18:17N 45°38' W 122°43'0 0.0
2015-Aug-26 17:17N 45°38' W 122°43'0 0.0
2015-Aug-26 16:23N 45°38' W 122°43'0 0.0
2015-Aug-26 15:32N 45°38' W 122°43'0 0.0
2015-Aug-26 14:23N 45°38' W 122°43'0 0.0
2015-Aug-26 13:26N 45°38' W 122°43'0 0.0
2015-Aug-26 12:32N 45°38' W 122°43'0 0.0
2015-Aug-26 11:29N 45°38' W 122°43'0 0.0
2015-Aug-26 10:29N 45°38' W 122°43'0 0.0
2015-Aug-26 09:29N 45°38' W 122°43'0 0.0
2015-Aug-26 08:29N 45°38' W 122°43'0 0.0
2015-Aug-26 07:32N 45°38' W 122°43'0 0.0
2015-Aug-26 06:32N 45°38' W 122°43'0 0.0
2015-Aug-26 05:32N 45°38' W 122°43'0 0.0
2015-Aug-26 04:32N 45°38' W 122°43'0 0.0
2015-Aug-26 03:23N 45°38' W 122°43'0 0.0
2015-Aug-26 02:17N 45°38' W 122°43'0 0.0
2015-Aug-26 01:26N 45°38' W 122°43'0 0.0
2015-Aug-26 00:32N 45°38' W 122°43'0 0.0
2015-Aug-25 23:32N 45°38' W 122°43'0 0.0
2015-Aug-25 22:32N 45°38' W 122°43'0 0.0
2015-Aug-25 20:32N 45°38' W 122°43'0 0.0
2015-Aug-25 19:20N 45°38' W 122°43'0 0.0
2015-Aug-25 18:32N 45°38' W 122°43'0 0.0
2015-Aug-25 17:32N 45°38' W 122°43'0 0.0
2015-Aug-25 16:32N 45°38' W 122°43'0 0.0
2015-Aug-25 15:32N 45°38' W 122°43'0 0.0
2015-Aug-25 14:26N 45°38' W 122°43'0 0.0
2015-Aug-25 13:20N 45°38' W 122°43'0 0.0
2015-Aug-25 12:32N 45°38' W 122°43'0 0.0
2015-Aug-25 11:32N 45°38' W 122°43'0 0.0
2015-Aug-25 10:26N 45°38' W 122°43'0 0.0
2015-Aug-25 09:29N 45°38' W 122°43'0 0.0
2015-Aug-25 08:08N 45°38' W 122°43'0 0.0
2015-Aug-25 07:32N 45°38' W 122°43'0 0.0
2015-Aug-25 06:32N 45°38' W 122°43'0 0.0
2015-Aug-25 05:32N 45°38' W 122°43'0 0.0
2015-Aug-25 04:23N 45°38' W 122°43'0 0.0
2015-Aug-25 03:29N 45°38' W 122°43'0 0.0
2015-Aug-25 02:14N 45°38' W 122°43'0 0.0
2015-Aug-25 01:32N 45°38' W 122°43'0 0.0
2015-Aug-25 00:26N 45°38' W 122°43'0 0.0
2015-Aug-24 23:32N 45°38' W 122°43'0 0.0
2015-Aug-24 22:29N 45°38' W 122°43'0 0.0
2015-Aug-24 21:32N 45°38' W 122°43'0 0.0
2015-Aug-24 20:32N 45°38' W 122°43'0 0.0
2015-Aug-24 19:11N 45°38' W 122°43'0 0.0
2015-Aug-24 18:20N 45°38' W 122°43'0 0.0
2015-Aug-24 17:20N 45°38' W 122°43'0 0.0
2015-Aug-24 16:20N 45°38' W 122°43'0 0.0
2015-Aug-24 15:32N 45°38' W 122°43'0 0.0
2015-Aug-24 14:26N 45°38' W 122°43'0 0.0
2015-Aug-24 13:26N 45°38' W 122°43'0 0.0
2015-Aug-24 12:32N 45°38' W 122°43'0 0.0
2015-Aug-24 11:29N 45°38' W 122°43'0 0.0
2015-Aug-24 10:23N 45°38' W 122°43'0 0.0
2015-Aug-24 09:26N 45°38' W 122°43'0 0.0
2015-Aug-24 08:26N 45°38' W 122°43'0 0.0
2015-Aug-24 07:26N 45°38' W 122°43'0 0.0
2015-Aug-24 06:32N 45°38' W 122°43'0 0.0
2015-Aug-24 05:26N 45°38' W 122°43'0 0.0
2015-Aug-24 04:17N 45°38' W 122°43'0 0.0
2015-Aug-24 03:29N 45°38' W 122°43'0 0.0
2015-Aug-24 02:32N 45°38' W 122°43'0 0.0
2015-Aug-24 01:32N 45°38' W 122°43'0 0.0
2015-Aug-24 00:26N 45°38' W 122°43'0 0.0
2015-Aug-23 23:29N 45°38' W 122°43'0 0.0
2015-Aug-23 21:26N 45°38' W 122°43'0 0.0
2015-Aug-23 20:32N 45°38' W 122°43'0 0.0
2015-Aug-23 19:23N 45°38' W 122°43'0 0.0
2015-Aug-23 18:20N 45°38' W 122°43'0 0.0
2015-Aug-23 17:32N 45°38' W 122°43'0 0.0
2015-Aug-23 16:20N 45°38' W 122°43'0 0.0
2015-Aug-23 15:32N 45°38' W 122°43'0 0.0
2015-Aug-23 14:32N 45°38' W 122°43'0 0.0
2015-Aug-23 13:20N 45°38' W 122°43'0 0.0
2015-Aug-23 12:32N 45°38' W 122°43'0 0.0
2015-Aug-23 11:32N 45°38' W 122°43'0 0.0
2015-Aug-23 10:32N 45°38' W 122°43'0 0.0
2015-Aug-23 09:26N 45°38' W 122°43'0 0.0
2015-Aug-23 08:32N 45°38' W 122°43'0 0.0
2015-Aug-23 07:26N 45°38' W 122°43'0 0.0
2015-Aug-23 06:26N 45°38' W 122°43'0 0.0
2015-Aug-23 05:32N 45°38' W 122°43'0 0.0
2015-Aug-23 04:23N 45°38' W 122°43'0 0.0
2015-Aug-23 03:32N 45°38' W 122°43'0 0.0
2015-Aug-23 02:26N 45°38' W 122°43'0 0.0
2015-Aug-23 01:32N 45°38' W 122°43'0 0.0
2015-Aug-23 00:29N 45°38' W 122°43'0 0.0
2015-Aug-22 23:29N 45°38' W 122°43'0 0.0
2015-Aug-22 22:26N 45°38' W 122°43'0 0.0
2015-Aug-22 21:32N 45°38' W 122°43'0 0.0
2015-Aug-22 20:32N 45°38' W 122°43'0 0.0
2015-Aug-22 19:32N 45°38' W 122°43'0 0.0
2015-Aug-22 18:29N 45°38' W 122°43'0 0.0
2015-Aug-22 17:32N 45°38' W 122°43'0 0.0
2015-Aug-22 16:26N 45°38' W 122°43'0 0.0
2015-Aug-22 15:32N 45°38' W 122°43'0 0.0
2015-Aug-22 14:32N 45°38' W 122°43'0 0.0
2015-Aug-22 13:32N 45°38' W 122°43'0 0.0
2015-Aug-22 12:32N 45°38' W 122°43'0 0.0
2015-Aug-22 11:32N 45°38' W 122°43'0 0.0
2015-Aug-22 10:32N 45°38' W 122°43'0 0.0
2015-Aug-22 09:32N 45°38' W 122°43'0 0.0
2015-Aug-22 08:32N 45°38' W 122°43'0 0.0
2015-Aug-22 07:26N 45°38' W 122°43'0 0.0
2015-Aug-22 06:32N 45°38' W 122°43'0 0.0
2015-Aug-22 05:29N 45°38' W 122°43'0 0.0
2015-Aug-22 04:23N 45°38' W 122°43'0 0.0
2015-Aug-22 03:32N 45°38' W 122°43'0 0.0
2015-Aug-22 02:20N 45°38' W 122°43'0 0.0
2015-Aug-22 01:32N 45°38' W 122°43'0 0.0
2015-Aug-22 00:26N 45°38' W 122°43'0 0.0
2015-Aug-21 23:32N 45°38' W 122°43'0 0.0
2015-Aug-21 22:32N 45°38' W 122°43'0 0.0
2015-Aug-21 21:32N 45°38' W 122°43'0 0.0
2015-Aug-21 20:32N 45°38' W 122°43'0 0.0
2015-Aug-21 19:32N 45°38' W 122°43'0 0.0
2015-Aug-21 18:32N 45°38' W 122°43'0 0.0
2015-Aug-21 17:32N 45°38' W 122°43'0 0.0
2015-Aug-21 16:32N 45°38' W 122°43'0 0.0
2015-Aug-21 15:32N 45°38' W 122°43'0 0.0
2015-Aug-21 14:32N 45°38' W 122°43'0 0.0
2015-Aug-21 13:20N 45°38' W 122°43'0 0.0
2015-Aug-21 12:32N 45°38' W 122°43'0 0.0
2015-Aug-21 11:32N 45°38' W 122°43'0 0.0
2015-Aug-21 10:32N 45°38' W 122°43'0 0.0
2015-Aug-21 09:32N 45°38' W 122°43'0 0.0
2015-Aug-21 08:32N 45°38' W 122°43'0 0.0
2015-Aug-21 07:29N 45°38' W 122°43'0 0.0
2015-Aug-21 06:32N 45°38' W 122°43'0 0.0
2015-Aug-21 05:32N 45°38' W 122°43'0 0.0
2015-Aug-21 04:32N 45°38' W 122°43'0 0.0
2015-Aug-21 03:32N 45°38' W 122°43'0 0.0
2015-Aug-21 02:32N 45°38' W 122°43'0 0.0
2015-Aug-21 01:29N 45°38' W 122°43'0 0.0
2015-Aug-21 00:32N 45°38' W 122°43'0 0.0
2015-Aug-20 23:29N 45°38' W 122°43'0 0.0
2015-Aug-20 22:32N 45°38' W 122°43'0 0.0
2015-Aug-20 21:31N 45°38' W 122°43'0 0.0
2015-Aug-20 20:31N 45°38' W 122°43'0 0.0
2015-Aug-20 19:31N 45°38' W 122°43'0 0.0
2015-Aug-20 18:31N 45°38' W 122°43'0 0.0
2015-Aug-20 17:31N 45°38' W 122°43'0 0.0
2015-Aug-20 16:25N 45°38' W 122°43'0 0.0
2015-Aug-20 15:25N 45°38' W 122°43'0 0.0
2015-Aug-20 14:25N 45°38' W 122°43'0 0.0
2015-Aug-20 13:28N 45°38' W 122°43'0 0.0
2015-Aug-20 12:22N 45°38' W 122°43'0 0.0
2015-Aug-20 11:28N 45°38' W 122°43'0 0.0
2015-Aug-20 10:31N 45°38' W 122°43'0 0.0
2015-Aug-20 09:31N 45°38' W 122°43'0 0.0
2015-Aug-20 08:22N 45°38' W 122°43'0 0.0
2015-Aug-20 07:31N 45°38' W 122°43'0 0.0
2015-Aug-20 06:31N 45°38' W 122°43'0 0.0
2015-Aug-20 05:31N 45°38' W 122°43'0 0.0
2015-Aug-20 04:31N 45°38' W 122°43'0 0.0
2015-Aug-20 03:31N 45°38' W 122°43'0 0.0
2015-Aug-20 02:31N 45°38' W 122°43'0 0.0
2015-Aug-20 01:25N 45°38' W 122°43'0 0.0
2015-Aug-20 00:31N 45°38' W 122°43'0 0.0
2015-Aug-19 23:25N 45°38' W 122°43'0 0.0
2015-Aug-19 22:31N 45°38' W 122°43'0 0.0
2015-Aug-19 21:13N 45°38' W 122°43'0 0.0
2015-Aug-19 20:31N 45°38' W 122°43'0 0.0
2015-Aug-19 19:31N 45°38' W 122°43'0 0.0
2015-Aug-19 18:25N 45°38' W 122°43'0 0.0
2015-Aug-19 17:31N 45°38' W 122°43'0 0.0
2015-Aug-19 16:19N 45°38' W 122°43'0 0.0
2015-Aug-19 15:28N 45°38' W 122°43'0 0.0
2015-Aug-19 14:31N 45°38' W 122°43'0 0.0
2015-Aug-19 13:31N 45°38' W 122°43'  

Dump ship's entire track history